Flight Track Log - Related Links

Times and Time Zones

All times are in EDT time to prevent confusion due to time zone crossing. See the KAP58 flight status page for this flight to view local times or setup timezone preferences in your user account.

Time Position Orientation Groundspeed Altitude Reporting Facility
EDT Latitude Longitude Course Direction KTS MPH feet Rate Location/Type
Wed 06:24:09 PM 42.3500 -70.9833 124° Southeast 84 97 500  Level KA90
Wed 06:25:07 PM 42.3333 -70.9500 124° Southeast 111 128 1,300 756 Climbing KA90
Wed 06:26:08 PM 42.3167 -70.9167 124° Southeast 123 142 2,000 632 Climbing KA90
Wed 06:27:01 PM 42.3000 -70.8667 114° Southeast 144 166 2,500 678 Climbing KA90
Wed 06:28:03 PM 42.2833 -70.8333 124° Southeast 137 158 3,300 609 Climbing KA90
Wed 06:29:09 PM 42.2500 -70.8000 143° Southeast 142 163 3,800 350 Climbing KA90
Wed 06:30:03 PM 42.2167 -70.7667 143° Southeast 139 160 4,000 222 Climbing KA90
Wed 06:32:00 PM 42.1591 -70.7150 139° Southeast  Level Estimated
Wed 06:39:00 PM 41.9587 -70.5074 139° Southeast  Level FlightAware Approximate
Wed 06:40:00 PM 41.9320 -70.4761 139° Southeast  Level FlightAware Approximate
Wed 06:41:00 PM 41.9052 -70.4449 139° Southeast  Level FlightAware Approximate
Wed 06:42:00 PM 41.8784 -70.4137 139° Southeast  Level FlightAware Approximate
Wed 06:43:00 PM 41.8486 -70.3887 155° Southeast  Level FlightAware Approximate
Wed 06:44:00 PM 41.8164 -70.3686 155° Southeast  Level FlightAware Approximate
Wed 06:45:00 PM 41.7843 -70.3485 155° Southeast  Level FlightAware Approximate
Wed 06:46:00 PM 41.7522 -70.3284 155° Southeast  Level FlightAware Approximate
Wed 06:47:00 PM 41.7205 -70.3070 151° Southeast  Level FlightAware Approximate
Wed 06:48:00 PM 41.6895 -70.2838 151° Southeast  Level FlightAware Approximate
Wed 06:49:00 PM 41.6667 -70.2667 151° Southeast  Level FlightAware Approximate
Wed 06:50:00 PM 41.6693 -70.2804 151° Southeast  Level Estimated
Wed 06:51:00 PM 41.6693 -70.2804 151° Southeast  Level Estimated
Wed 06:52:00 PM 41.6693 -70.2804 151° Southeast  Level Estimated
Wed 06:53:00 PM 41.6693 -70.2804 151° Southeast  Level Estimated
Wed 06:54:00 PM 41.6693 -70.2804 151° Southeast  Level Estimated

Login

Don't have an account? Register now (free) for customized features, flight alerts, and more!